sensor_id;sensor_type;location;lat;lon;timestamp;P1;durP1;ratioP1;P2;durP2;ratioP2
43580;SDS011;29175;51.030;4.606;2022-07-05T00:01:35;10.15;;;3.80;;
43580;SDS011;29175;51.030;4.606;2022-07-05T00:04:02;6.65;;;4.00;;
43580;SDS011;29175;51.030;4.606;2022-07-05T00:06:31;6.53;;;3.55;;
43580;SDS011;29175;51.030;4.606;2022-07-05T00:08:57;6.88;;;3.75;;
43580;SDS011;29175;51.030;4.606;2022-07-05T00:11:29;8.27;;;3.55;;
43580;SDS011;29175;51.030;4.606;2022-07-05T00:16:24;6.60;;;4.07;;
43580;SDS011;29175;51.030;4.606;2022-07-05T00:18:52;8.02;;;3.95;;
43580;SDS011;29175;51.030;4.606;2022-07-05T00:21:21;6.50;;;3.58;;
43580;SDS011;29175;51.030;4.606;2022-07-05T00:26:15;5.35;;;3.45;;
43580;SDS011;29175;51.030;4.606;2022-07-05T00:28:44;7.10;;;3.33;;
43580;SDS011;29175;51.030;4.606;2022-07-05T00:31:09;7.40;;;3.60;;
43580;SDS011;29175;51.030;4.606;2022-07-05T00:33:38;8.40;;;3.45;;
43580;SDS011;29175;51.030;4.606;2022-07-05T00:36:10;5.93;;;3.80;;
43580;SDS011;29175;51.030;4.606;2022-07-05T00:38:36;9.77;;;3.90;;
43580;SDS011;29175;51.030;4.606;2022-07-05T00:41:02;5.88;;;3.70;;
43580;SDS011;29175;51.030;4.606;2022-07-05T00:43:28;9.02;;;4.10;;
43580;SDS011;29175;51.030;4.606;2022-07-05T00:45:54;9.43;;;4.28;;
43580;SDS011;29175;51.030;4.606;2022-07-05T00:48:21;7.28;;;4.05;;
43580;SDS011;29175;51.030;4.606;2022-07-05T00:50:49;7.95;;;3.70;;
43580;SDS011;29175;51.030;4.606;2022-07-05T00:53:16;8.20;;;4.10;;
43580;SDS011;29175;51.030;4.606;2022-07-05T00:55:43;8.63;;;4.07;;
43580;SDS011;29175;51.030;4.606;2022-07-05T00:58:11;7.57;;;3.50;;
43580;SDS011;29175;51.030;4.606;2022-07-05T01:00:37;7.85;;;3.95;;
43580;SDS011;29175;51.030;4.606;2022-07-05T01:03:06;7.28;;;3.92;;
43580;SDS011;29175;51.030;4.606;2022-07-05T01:05:37;7.95;;;3.90;;
43580;SDS011;29175;51.030;4.606;2022-07-05T01:08:05;13.82;;;4.18;;
43580;SDS011;29175;51.030;4.606;2022-07-05T01:10:32;9.77;;;3.95;;
43580;SDS011;29175;51.030;4.606;2022-07-05T01:12:59;10.38;;;4.10;;
43580;SDS011;29175;51.030;4.606;2022-07-05T01:15:26;8.38;;;4.15;;
43580;SDS011;29175;51.030;4.606;2022-07-05T01:17:56;7.45;;;4.03;;
43580;SDS011;29175;51.030;4.606;2022-07-05T01:20:21;8.88;;;4.05;;
43580;SDS011;29175;51.030;4.606;2022-07-05T01:22:51;9.65;;;4.05;;
43580;SDS011;29175;51.030;4.606;2022-07-05T01:25:28;7.35;;;4.15;;
43580;SDS011;29175;51.030;4.606;2022-07-05T01:27:55;9.60;;;4.43;;
43580;SDS011;29175;51.030;4.606;2022-07-05T01:30:22;7.57;;;4.30;;
43580;SDS011;29175;51.030;4.606;2022-07-05T01:32:50;9.05;;;4.18;;
43580;SDS011;29175;51.030;4.606;2022-07-05T01:35:17;7.63;;;4.40;;
43580;SDS011;29175;51.030;4.606;2022-07-05T01:37:49;8.33;;;4.40;;
43580;SDS011;29175;51.030;4.606;2022-07-05T01:40:16;5.43;;;3.63;;
43580;SDS011;29175;51.030;4.606;2022-07-05T01:42:45;8.90;;;3.80;;
43580;SDS011;29175;51.030;4.606;2022-07-05T01:45:15;9.27;;;4.10;;
43580;SDS011;29175;51.030;4.606;2022-07-05T01:48:05;10.00;;;4.63;;
43580;SDS011;29175;51.030;4.606;2022-07-05T01:50:33;11.05;;;4.85;;
43580;SDS011;29175;51.030;4.606;2022-07-05T01:53:03;9.45;;;4.72;;
43580;SDS011;29175;51.030;4.606;2022-07-05T01:55:33;10.02;;;4.53;;
43580;SDS011;29175;51.030;4.606;2022-07-05T01:58:02;7.65;;;4.32;;
43580;SDS011;29175;51.030;4.606;2022-07-05T02:00:29;13.37;;;5.47;;
43580;SDS011;29175;51.030;4.606;2022-07-05T02:02:59;8.43;;;4.10;;
43580;SDS011;29175;51.030;4.606;2022-07-05T02:05:27;10.65;;;4.70;;
43580;SDS011;29175;51.030;4.606;2022-07-05T02:07:56;8.95;;;4.43;;
43580;SDS011;29175;51.030;4.606;2022-07-05T02:10:28;12.57;;;5.15;;
43580;SDS011;29175;51.030;4.606;2022-07-05T02:12:54;7.85;;;4.40;;
43580;SDS011;29175;51.030;4.606;2022-07-05T02:15:20;8.88;;;4.75;;
43580;SDS011;29175;51.030;4.606;2022-07-05T02:17:48;10.05;;;4.82;;
43580;SDS011;29175;51.030;4.606;2022-07-05T02:20:14;9.23;;;5.05;;
43580;SDS011;29175;51.030;4.606;2022-07-05T02:25:16;9.38;;;5.05;;
43580;SDS011;29175;51.030;4.606;2022-07-05T02:27:43;12.70;;;4.90;;
43580;SDS011;29175;51.030;4.606;2022-07-05T02:30:12;8.00;;;4.97;;
43580;SDS011;29175;51.030;4.606;2022-07-05T02:32:41;12.65;;;5.28;;
43580;SDS011;29175;51.030;4.606;2022-07-05T02:35:09;10.87;;;5.30;;
43580;SDS011;29175;51.030;4.606;2022-07-05T02:37:35;9.07;;;5.20;;
43580;SDS011;29175;51.030;4.606;2022-07-05T02:40:03;10.27;;;4.90;;
43580;SDS011;29175;51.030;4.606;2022-07-05T02:42:31;10.32;;;5.40;;
43580;SDS011;29175;51.030;4.606;2022-07-05T02:44:58;12.80;;;5.00;;
43580;SDS011;29175;51.030;4.606;2022-07-05T02:47:25;11.43;;;5.05;;
43580;SDS011;29175;51.030;4.606;2022-07-05T02:50:03;9.10;;;5.05;;
43580;SDS011;29175;51.030;4.606;2022-07-05T02:52:35;8.60;;;5.00;;
43580;SDS011;29175;51.030;4.606;2022-07-05T02:57:30;13.87;;;5.33;;
43580;SDS011;29175;51.030;4.606;2022-07-05T03:00:01;10.27;;;5.18;;
43580;SDS011;29175;51.030;4.606;2022-07-05T03:02:33;11.07;;;4.47;;
43580;SDS011;29175;51.030;4.606;2022-07-05T03:05:00;14.20;;;5.05;;
43580;SDS011;29175;51.030;4.606;2022-07-05T03:07:29;8.63;;;5.47;;
43580;SDS011;29175;51.030;4.606;2022-07-05T03:09:56;10.70;;;4.93;;
43580;SDS011;29175;51.030;4.606;2022-07-05T03:12:22;6.93;;;4.60;;
43580;SDS011;29175;51.030;4.606;2022-07-05T03:14:48;16.35;;;5.20;;
43580;SDS011;29175;51.030;4.606;2022-07-05T03:17:15;11.65;;;5.60;;
43580;SDS011;29175;51.030;4.606;2022-07-05T03:19:41;10.70;;;5.35;;
43580;SDS011;29175;51.030;4.606;2022-07-05T03:22:06;11.88;;;5.25;;
43580;SDS011;29175;51.030;4.606;2022-07-05T03:24:33;11.25;;;5.30;;
43580;SDS011;29175;51.030;4.606;2022-07-05T03:26:59;10.30;;;5.35;;
43580;SDS011;29175;51.030;4.606;2022-07-05T03:29:28;13.85;;;5.65;;
43580;SDS011;29175;51.030;4.606;2022-07-05T03:32:00;10.23;;;5.20;;
43580;SDS011;29175;51.030;4.606;2022-07-05T03:34:26;11.68;;;5.35;;
43580;SDS011;29175;51.030;4.606;2022-07-05T03:36:53;9.93;;;4.93;;
43580;SDS011;29175;51.030;4.606;2022-07-05T03:39:21;8.10;;;4.75;;
43580;SDS011;29175;51.030;4.606;2022-07-05T03:41:47;10.57;;;5.45;;
43580;SDS011;29175;51.030;4.606;2022-07-05T03:44:15;10.23;;;5.03;;
43580;SDS011;29175;51.030;4.606;2022-07-05T03:49:10;8.32;;;5.25;;
43580;SDS011;29175;51.030;4.606;2022-07-05T03:51:36;12.65;;;5.60;;
43580;SDS011;29175;51.030;4.606;2022-07-05T03:54:03;14.32;;;5.88;;
43580;SDS011;29175;51.030;4.606;2022-07-05T03:56:30;9.07;;;5.50;;
43580;SDS011;29175;51.030;4.606;2022-07-05T03:58:57;13.88;;;5.35;;
43580;SDS011;29175;51.030;4.606;2022-07-05T04:01:26;10.68;;;5.57;;
43580;SDS011;29175;51.030;4.606;2022-07-05T04:03:52;12.57;;;5.32;;
43580;SDS011;29175;51.030;4.606;2022-07-05T04:06:19;10.90;;;5.47;;
43580;SDS011;29175;51.030;4.606;2022-07-05T04:08:46;11.80;;;5.00;;
43580;SDS011;29175;51.030;4.606;2022-07-05T04:11:12;8.55;;;5.13;;
43580;SDS011;29175;51.030;4.606;2022-07-05T04:13:38;11.57;;;5.65;;
43580;SDS011;29175;51.030;4.606;2022-07-05T04:16:07;9.98;;;5.80;;
43580;SDS011;29175;51.030;4.606;2022-07-05T04:18:35;12.27;;;5.82;;
43580;SDS011;29175;51.030;4.606;2022-07-05T04:21:04;10.93;;;5.45;;
43580;SDS011;29175;51.030;4.606;2022-07-05T04:23:32;11.32;;;5.28;;
43580;SDS011;29175;51.030;4.606;2022-07-05T04:25:59;10.27;;;5.10;;
43580;SDS011;29175;51.030;4.606;2022-07-05T04:28:26;12.98;;;5.30;;
43580;SDS011;29175;51.030;4.606;2022-07-05T04:30:55;10.60;;;5.75;;
43580;SDS011;29175;51.030;4.606;2022-07-05T04:33:24;10.38;;;5.07;;
43580;SDS011;29175;51.030;4.606;2022-07-05T04:35:53;12.00;;;4.80;;
43580;SDS011;29175;51.030;4.606;2022-07-05T04:38:22;10.10;;;5.07;;
43580;SDS011;29175;51.030;4.606;2022-07-05T04:40:49;12.75;;;5.13;;
43580;SDS011;29175;51.030;4.606;2022-07-05T04:45:43;10.20;;;5.50;;
43580;SDS011;29175;51.030;4.606;2022-07-05T04:48:09;11.27;;;5.45;;
43580;SDS011;29175;51.030;4.606;2022-07-05T04:50:34;10.88;;;5.22;;
43580;SDS011;29175;51.030;4.606;2022-07-05T04:53:00;14.57;;;5.78;;
43580;SDS011;29175;51.030;4.606;2022-07-05T04:55:27;12.57;;;4.93;;
43580;SDS011;29175;51.030;4.606;2022-07-05T04:57:54;12.60;;;5.07;;
43580;SDS011;29175;51.030;4.606;2022-07-05T05:00:20;9.23;;;4.43;;
43580;SDS011;29175;51.030;4.606;2022-07-05T05:02:46;11.20;;;4.82;;
43580;SDS011;29175;51.030;4.606;2022-07-05T05:05:12;12.15;;;4.75;;
43580;SDS011;29175;51.030;4.606;2022-07-05T05:07:41;12.00;;;5.03;;
43580;SDS011;29175;51.030;4.606;2022-07-05T05:10:11;11.48;;;4.82;;
43580;SDS011;29175;51.030;4.606;2022-07-05T05:12:38;8.65;;;5.03;;
43580;SDS011;29175;51.030;4.606;2022-07-05T05:15:06;9.75;;;3.83;;
43580;SDS011;29175;51.030;4.606;2022-07-05T05:17:37;12.95;;;5.25;;
43580;SDS011;29175;51.030;4.606;2022-07-05T05:20:16;15.32;;;5.53;;
43580;SDS011;29175;51.030;4.606;2022-07-05T05:22:48;11.85;;;5.40;;
43580;SDS011;29175;51.030;4.606;2022-07-05T05:25:15;11.02;;;5.18;;
43580;SDS011;29175;51.030;4.606;2022-07-05T05:27:48;10.82;;;5.10;;
43580;SDS011;29175;51.030;4.606;2022-07-05T05:32:45;12.70;;;5.17;;
43580;SDS011;29175;51.030;4.606;2022-07-05T05:35:12;17.45;;;5.72;;
43580;SDS011;29175;51.030;4.606;2022-07-05T05:37:54;11.20;;;4.93;;
43580;SDS011;29175;51.030;4.606;2022-07-05T05:40:22;11.57;;;5.00;;
43580;SDS011;29175;51.030;4.606;2022-07-05T05:42:51;15.23;;;5.55;;
43580;SDS011;29175;51.030;4.606;2022-07-05T05:45:19;13.88;;;5.57;;
43580;SDS011;29175;51.030;4.606;2022-07-05T05:47:48;11.55;;;4.85;;
43580;SDS011;29175;51.030;4.606;2022-07-05T05:50:24;11.93;;;5.40;;
43580;SDS011;29175;51.030;4.606;2022-07-05T05:52:52;9.82;;;4.70;;
43580;SDS011;29175;51.030;4.606;2022-07-05T05:55:19;10.02;;;5.15;;
43580;SDS011;29175;51.030;4.606;2022-07-05T05:57:45;15.75;;;5.85;;
43580;SDS011;29175;51.030;4.606;2022-07-05T06:00:14;17.55;;;6.07;;
43580;SDS011;29175;51.030;4.606;2022-07-05T06:02:40;16.00;;;5.72;;
43580;SDS011;29175;51.030;4.606;2022-07-05T06:05:07;10.45;;;5.82;;
43580;SDS011;29175;51.030;4.606;2022-07-05T06:07:52;14.15;;;5.53;;
43580;SDS011;29175;51.030;4.606;2022-07-05T06:10:20;20.42;;;6.05;;
43580;SDS011;29175;51.030;4.606;2022-07-05T06:12:48;13.98;;;6.05;;
43580;SDS011;29175;51.030;4.606;2022-07-05T06:15:16;19.42;;;5.28;;
43580;SDS011;29175;51.030;4.606;2022-07-05T06:17:43;11.23;;;4.70;;
43580;SDS011;29175;51.030;4.606;2022-07-05T06:20:13;29.13;;;4.30;;
43580;SDS011;29175;51.030;4.606;2022-07-05T06:22:41;10.85;;;4.10;;
43580;SDS011;29175;51.030;4.606;2022-07-05T06:25:07;13.25;;;4.57;;
43580;SDS011;29175;51.030;4.606;2022-07-05T06:27:37;10.93;;;4.18;;
43580;SDS011;29175;51.030;4.606;2022-07-05T06:30:07;11.25;;;4.40;;
43580;SDS011;29175;51.030;4.606;2022-07-05T06:32:33;14.98;;;4.45;;
43580;SDS011;29175;51.030;4.606;2022-07-05T06:34:59;14.43;;;4.68;;
43580;SDS011;29175;51.030;4.606;2022-07-05T06:37:26;15.35;;;4.35;;
43580;SDS011;29175;51.030;4.606;2022-07-05T06:39:52;12.25;;;3.80;;
43580;SDS011;29175;51.030;4.606;2022-07-05T06:42:17;10.27;;;3.50;;
43580;SDS011;29175;51.030;4.606;2022-07-05T06:44:43;9.50;;;3.25;;
43580;SDS011;29175;51.030;4.606;2022-07-05T06:47:09;8.52;;;2.40;;
43580;SDS011;29175;51.030;4.606;2022-07-05T06:49:35;10.95;;;2.80;;
43580;SDS011;29175;51.030;4.606;2022-07-05T06:52:01;12.02;;;3.10;;
43580;SDS011;29175;51.030;4.606;2022-07-05T06:54:27;6.82;;;2.67;;
43580;SDS011;29175;51.030;4.606;2022-07-05T06:56:52;7.97;;;2.70;;
43580;SDS011;29175;51.030;4.606;2022-07-05T06:59:20;6.60;;;2.20;;
43580;SDS011;29175;51.030;4.606;2022-07-05T07:01:46;6.07;;;2.35;;
43580;SDS011;29175;51.030;4.606;2022-07-05T07:04:12;9.85;;;2.60;;
43580;SDS011;29175;51.030;4.606;2022-07-05T07:06:38;8.10;;;2.17;;
43580;SDS011;29175;51.030;4.606;2022-07-05T07:09:03;5.00;;;2.13;;
43580;SDS011;29175;51.030;4.606;2022-07-05T07:11:46;6.60;;;2.42;;
43580;SDS011;29175;51.030;4.606;2022-07-05T07:14:13;5.38;;;2.10;;
43580;SDS011;29175;51.030;4.606;2022-07-05T07:16:39;4.65;;;2.30;;
43580;SDS011;29175;51.030;4.606;2022-07-05T07:19:05;6.95;;;2.20;;
43580;SDS011;29175;51.030;4.606;2022-07-05T07:21:30;8.80;;;2.50;;
43580;SDS011;29175;51.030;4.606;2022-07-05T07:23:57;11.32;;;2.97;;
43580;SDS011;29175;51.030;4.606;2022-07-05T07:26:23;8.43;;;2.60;;
43580;SDS011;29175;51.030;4.606;2022-07-05T07:28:49;4.82;;;2.30;;
43580;SDS011;29175;51.030;4.606;2022-07-05T07:31:15;7.68;;;2.15;;
43580;SDS011;29175;51.030;4.606;2022-07-05T07:33:41;5.45;;;2.20;;
43580;SDS011;29175;51.030;4.606;2022-07-05T07:36:06;6.95;;;2.90;;
43580;SDS011;29175;51.030;4.606;2022-07-05T07:38:32;6.63;;;1.98;;
43580;SDS011;29175;51.030;4.606;2022-07-05T07:40:58;8.23;;;2.55;;
43580;SDS011;29175;51.030;4.606;2022-07-05T07:43:25;9.65;;;2.50;;
43580;SDS011;29175;51.030;4.606;2022-07-05T07:45:51;11.07;;;2.70;;
43580;SDS011;29175;51.030;4.606;2022-07-05T07:48:17;7.97;;;2.17;;
43580;SDS011;29175;51.030;4.606;2022-07-05T07:50:43;8.30;;;2.08;;
43580;SDS011;29175;51.030;4.606;2022-07-05T07:53:09;8.80;;;2.42;;
43580;SDS011;29175;51.030;4.606;2022-07-05T07:55:35;10.07;;;2.38;;
43580;SDS011;29175;51.030;4.606;2022-07-05T07:58:00;7.43;;;2.15;;
43580;SDS011;29175;51.030;4.606;2022-07-05T08:00:27;7.63;;;2.28;;
43580;SDS011;29175;51.030;4.606;2022-07-05T08:02:53;7.88;;;1.75;;
43580;SDS011;29175;51.030;4.606;2022-07-05T08:05:19;5.85;;;2.25;;
43580;SDS011;29175;51.030;4.606;2022-07-05T08:07:45;6.95;;;2.33;;
43580;SDS011;29175;51.030;4.606;2022-07-05T08:10:10;11.98;;;3.08;;
43580;SDS011;29175;51.030;4.606;2022-07-05T08:12:36;11.95;;;2.88;;
43580;SDS011;29175;51.030;4.606;2022-07-05T08:15:02;11.15;;;2.85;;
43580;SDS011;29175;51.030;4.606;2022-07-05T08:17:28;13.98;;;2.67;;
43580;SDS011;29175;51.030;4.606;2022-07-05T08:19:54;8.98;;;2.33;;
43580;SDS011;29175;51.030;4.606;2022-07-05T08:22:38;6.40;;;2.50;;
43580;SDS011;29175;51.030;4.606;2022-07-05T08:25:04;10.43;;;2.58;;
43580;SDS011;29175;51.030;4.606;2022-07-05T08:27:30;8.50;;;2.33;;
43580;SDS011;29175;51.030;4.606;2022-07-05T08:29:56;8.77;;;2.67;;
43580;SDS011;29175;51.030;4.606;2022-07-05T08:32:21;17.83;;;3.38;;
43580;SDS011;29175;51.030;4.606;2022-07-05T08:34:47;6.65;;;2.30;;
43580;SDS011;29175;51.030;4.606;2022-07-05T08:37:13;11.75;;;2.45;;
43580;SDS011;29175;51.030;4.606;2022-07-05T08:39:38;5.63;;;2.50;;
43580;SDS011;29175;51.030;4.606;2022-07-05T08:42:04;10.52;;;2.30;;
43580;SDS011;29175;51.030;4.606;2022-07-05T08:44:35;7.50;;;2.00;;
43580;SDS011;29175;51.030;4.606;2022-07-05T08:47:04;8.68;;;2.15;;
43580;SDS011;29175;51.030;4.606;2022-07-05T08:49:33;9.52;;;2.28;;
43580;SDS011;29175;51.030;4.606;2022-07-05T08:52:02;5.88;;;2.28;;
43580;SDS011;29175;51.030;4.606;2022-07-05T08:54:30;9.70;;;1.98;;
43580;SDS011;29175;51.030;4.606;2022-07-05T08:56:57;10.80;;;2.17;;
43580;SDS011;29175;51.030;4.606;2022-07-05T08:59:23;8.32;;;2.15;;
43580;SDS011;29175;51.030;4.606;2022-07-05T09:01:49;4.93;;;2.05;;
43580;SDS011;29175;51.030;4.606;2022-07-05T09:04:17;7.68;;;2.28;;
43580;SDS011;29175;51.030;4.606;2022-07-05T09:06:45;7.50;;;2.05;;
43580;SDS011;29175;51.030;4.606;2022-07-05T09:09:13;8.43;;;2.70;;
43580;SDS011;29175;51.030;4.606;2022-07-05T09:11:42;10.68;;;2.22;;
43580;SDS011;29175;51.030;4.606;2022-07-05T09:14:22;8.90;;;2.25;;
43580;SDS011;29175;51.030;4.606;2022-07-05T09:16:50;7.47;;;2.15;;
43580;SDS011;29175;51.030;4.606;2022-07-05T09:19:16;6.55;;;1.70;;
43580;SDS011;29175;51.030;4.606;2022-07-05T09:21:42;8.30;;;2.33;;
43580;SDS011;29175;51.030;4.606;2022-07-05T09:24:08;5.57;;;1.95;;
43580;SDS011;29175;51.030;4.606;2022-07-05T09:26:35;8.48;;;2.13;;
43580;SDS011;29175;51.030;4.606;2022-07-05T09:29:10;7.85;;;2.00;;
43580;SDS011;29175;51.030;4.606;2022-07-05T09:31:41;12.25;;;2.30;;
43580;SDS011;29175;51.030;4.606;2022-07-05T09:34:16;8.30;;;2.00;;
43580;SDS011;29175;51.030;4.606;2022-07-05T09:36:55;5.72;;;2.08;;
43580;SDS011;29175;51.030;4.606;2022-07-05T09:42:10;8.07;;;2.10;;
43580;SDS011;29175;51.030;4.606;2022-07-05T09:44:43;6.93;;;1.40;;
43580;SDS011;29175;51.030;4.606;2022-07-05T09:47:11;4.88;;;1.45;;
43580;SDS011;29175;51.030;4.606;2022-07-05T09:49:41;6.03;;;1.60;;
43580;SDS011;29175;51.030;4.606;2022-07-05T09:52:10;5.57;;;1.30;;
43580;SDS011;29175;51.030;4.606;2022-07-05T09:54:37;4.90;;;1.27;;
43580;SDS011;29175;51.030;4.606;2022-07-05T09:57:03;6.20;;;1.40;;
43580;SDS011;29175;51.030;4.606;2022-07-05T09:59:28;3.70;;;1.20;;
43580;SDS011;29175;51.030;4.606;2022-07-05T10:01:54;3.30;;;1.40;;
43580;SDS011;29175;51.030;4.606;2022-07-05T10:04:20;4.85;;;1.27;;
43580;SDS011;29175;51.030;4.606;2022-07-05T10:06:46;6.63;;;1.80;;
43580;SDS011;29175;51.030;4.606;2022-07-05T10:09:12;5.95;;;1.63;;
43580;SDS011;29175;51.030;4.606;2022-07-05T10:11:41;9.63;;;1.70;;
43580;SDS011;29175;51.030;4.606;2022-07-05T10:14:14;8.50;;;2.00;;
43580;SDS011;29175;51.030;4.606;2022-07-05T10:16:44;4.75;;;1.63;;
43580;SDS011;29175;51.030;4.606;2022-07-05T10:19:14;6.22;;;1.70;;
43580;SDS011;29175;51.030;4.606;2022-07-05T10:21:42;5.22;;;1.40;;
43580;SDS011;29175;51.030;4.606;2022-07-05T10:24:10;7.60;;;1.35;;
43580;SDS011;29175;51.030;4.606;2022-07-05T10:26:36;3.90;;;1.60;;
43580;SDS011;29175;51.030;4.606;2022-07-05T10:29:03;7.07;;;1.52;;
43580;SDS011;29175;51.030;4.606;2022-07-05T10:31:30;4.50;;;1.35;;
43580;SDS011;29175;51.030;4.606;2022-07-05T10:33:56;4.97;;;1.60;;
43580;SDS011;29175;51.030;4.606;2022-07-05T10:36:25;5.60;;;1.30;;
43580;SDS011;29175;51.030;4.606;2022-07-05T10:38:51;3.67;;;1.73;;
43580;SDS011;29175;51.030;4.606;2022-07-05T10:41:18;3.40;;;1.20;;
43580;SDS011;29175;51.030;4.606;2022-07-05T10:43:55;3.97;;;1.52;;
43580;SDS011;29175;51.030;4.606;2022-07-05T10:46:37;5.15;;;1.50;;
43580;SDS011;29175;51.030;4.606;2022-07-05T10:49:14;6.35;;;1.55;;
43580;SDS011;29175;51.030;4.606;2022-07-05T10:51:41;3.45;;;1.42;;
43580;SDS011;29175;51.030;4.606;2022-07-05T10:54:07;4.90;;;1.25;;
43580;SDS011;29175;51.030;4.606;2022-07-05T10:56:33;5.07;;;1.50;;
43580;SDS011;29175;51.030;4.606;2022-07-05T10:59:06;6.80;;;1.48;;
43580;SDS011;29175;51.030;4.606;2022-07-05T11:01:35;4.82;;;1.60;;
43580;SDS011;29175;51.030;4.606;2022-07-05T11:06:28;6.28;;;1.80;;
43580;SDS011;29175;51.030;4.606;2022-07-05T11:11:29;6.68;;;1.50;;
43580;SDS011;29175;51.030;4.606;2022-07-05T11:13:57;11.77;;;1.90;;
43580;SDS011;29175;51.030;4.606;2022-07-05T11:16:28;5.18;;;1.63;;
43580;SDS011;29175;51.030;4.606;2022-07-05T11:19:06;4.97;;;1.38;;
43580;SDS011;29175;51.030;4.606;2022-07-05T11:21:32;6.18;;;1.50;;
43580;SDS011;29175;51.030;4.606;2022-07-05T11:26:58;6.28;;;1.73;;
43580;SDS011;29175;51.030;4.606;2022-07-05T11:29:41;6.15;;;1.75;;
43580;SDS011;29175;51.030;4.606;2022-07-05T11:32:07;4.82;;;1.58;;
43580;SDS011;29175;51.030;4.606;2022-07-05T11:34:35;2.60;;;1.40;;
43580;SDS011;29175;51.030;4.606;2022-07-05T11:39:42;7.78;;;2.00;;
43580;SDS011;29175;51.030;4.606;2022-07-05T11:42:10;6.82;;;1.70;;
43580;SDS011;29175;51.030;4.606;2022-07-05T11:44:43;8.13;;;2.25;;
43580;SDS011;29175;51.030;4.606;2022-07-05T11:47:14;6.22;;;1.58;;
43580;SDS011;29175;51.030;4.606;2022-07-05T11:49:41;5.50;;;1.75;;
43580;SDS011;29175;51.030;4.606;2022-07-05T11:52:17;5.00;;;2.15;;
43580;SDS011;29175;51.030;4.606;2022-07-05T11:54:49;6.28;;;2.40;;
43580;SDS011;29175;51.030;4.606;2022-07-05T11:57:15;7.80;;;2.42;;
43580;SDS011;29175;51.030;4.606;2022-07-05T11:59:40;8.52;;;2.08;;
43580;SDS011;29175;51.030;4.606;2022-07-05T12:02:06;5.78;;;2.40;;
43580;SDS011;29175;51.030;4.606;2022-07-05T12:04:31;3.72;;;2.00;;
43580;SDS011;29175;51.030;4.606;2022-07-05T12:06:57;4.47;;;2.35;;
43580;SDS011;29175;51.030;4.606;2022-07-05T12:09:27;8.00;;;2.70;;
43580;SDS011;29175;51.030;4.606;2022-07-05T12:12:17;5.57;;;2.92;;
43580;SDS011;29175;51.030;4.606;2022-07-05T12:15:02;6.60;;;3.03;;
43580;SDS011;29175;51.030;4.606;2022-07-05T12:17:28;7.20;;;2.85;;
43580;SDS011;29175;51.030;4.606;2022-07-05T12:19:54;5.88;;;2.92;;
43580;SDS011;29175;51.030;4.606;2022-07-05T12:22:33;6.28;;;2.92;;
43580;SDS011;29175;51.030;4.606;2022-07-05T12:25:02;9.13;;;3.28;;
43580;SDS011;29175;51.030;4.606;2022-07-05T12:27:29;6.05;;;2.70;;
43580;SDS011;29175;51.030;4.606;2022-07-05T12:29:58;7.97;;;3.20;;
43580;SDS011;29175;51.030;4.606;2022-07-05T12:32:24;8.30;;;3.53;;
43580;SDS011;29175;51.030;4.606;2022-07-05T12:34:50;7.78;;;2.60;;
43580;SDS011;29175;51.030;4.606;2022-07-05T12:37:20;7.00;;;2.58;;
43580;SDS011;29175;51.030;4.606;2022-07-05T12:39:49;4.63;;;2.45;;
43580;SDS011;29175;51.030;4.606;2022-07-05T12:42:34;7.90;;;2.40;;
43580;SDS011;29175;51.030;4.606;2022-07-05T12:45:17;5.78;;;2.22;;
43580;SDS011;29175;51.030;4.606;2022-07-05T12:47:56;3.40;;;1.67;;
43580;SDS011;29175;51.030;4.606;2022-07-05T12:50:25;4.28;;;1.75;;
43580;SDS011;29175;51.030;4.606;2022-07-05T12:55:50;8.93;;;2.15;;
43580;SDS011;29175;51.030;4.606;2022-07-05T12:58:55;8.55;;;2.25;;
43580;SDS011;29175;51.030;4.606;2022-07-05T13:04:12;7.30;;;1.90;;
43580;SDS011;29175;51.030;4.606;2022-07-05T13:14:37;4.40;;;1.55;;
43580;SDS011;29175;51.030;4.606;2022-07-05T13:17:05;5.28;;;1.60;;
43580;SDS011;29175;51.030;4.606;2022-07-05T13:19:33;7.35;;;1.52;;
43580;SDS011;29175;51.030;4.606;2022-07-05T13:22:01;3.78;;;1.65;;
43580;SDS011;29175;51.030;4.606;2022-07-05T13:24:28;3.70;;;1.30;;
43580;SDS011;29175;51.030;4.606;2022-07-05T13:26:54;4.10;;;1.40;;
43580;SDS011;29175;51.030;4.606;2022-07-05T13:29:21;9.82;;;2.00;;
43580;SDS011;29175;51.030;4.606;2022-07-05T13:31:47;4.78;;;1.40;;
43580;SDS011;29175;51.030;4.606;2022-07-05T13:34:13;5.55;;;1.52;;
43580;SDS011;29175;51.030;4.606;2022-07-05T13:36:39;3.00;;;1.40;;
43580;SDS011;29175;51.030;4.606;2022-07-05T13:39:05;2.92;;;1.40;;
43580;SDS011;29175;51.030;4.606;2022-07-05T13:41:31;5.85;;;1.20;;
43580;SDS011;29175;51.030;4.606;2022-07-05T13:43:58;5.15;;;1.38;;
43580;SDS011;29175;51.030;4.606;2022-07-05T13:46:24;7.60;;;1.55;;
43580;SDS011;29175;51.030;4.606;2022-07-05T13:48:52;6.10;;;1.95;;
43580;SDS011;29175;51.030;4.606;2022-07-05T13:51:18;4.05;;;1.50;;
43580;SDS011;29175;51.030;4.606;2022-07-05T13:53:44;7.43;;;1.60;;
43580;SDS011;29175;51.030;4.606;2022-07-05T13:56:10;6.38;;;1.50;;
43580;SDS011;29175;51.030;4.606;2022-07-05T14:01:05;2.90;;;1.13;;
43580;SDS011;29175;51.030;4.606;2022-07-05T14:03:33;6.70;;;1.60;;
43580;SDS011;29175;51.030;4.606;2022-07-05T14:08:28;3.90;;;1.60;;
43580;SDS011;29175;51.030;4.606;2022-07-05T14:10:56;2.85;;;1.58;;
43580;SDS011;29175;51.030;4.606;2022-07-05T14:13:23;3.45;;;1.20;;
43580;SDS011;29175;51.030;4.606;2022-07-05T14:15:50;2.28;;;1.15;;
43580;SDS011;29175;51.030;4.606;2022-07-05T14:18:21;5.40;;;1.40;;
43580;SDS011;29175;51.030;4.606;2022-07-05T14:20:55;4.03;;;1.40;;
43580;SDS011;29175;51.030;4.606;2022-07-05T14:23:24;9.85;;;1.73;;
43580;SDS011;29175;51.030;4.606;2022-07-05T14:25:51;5.43;;;1.20;;
43580;SDS011;29175;51.030;4.606;2022-07-05T14:28:19;8.07;;;1.67;;
43580;SDS011;29175;51.030;4.606;2022-07-05T14:30:48;6.90;;;1.42;;
43580;SDS011;29175;51.030;4.606;2022-07-05T14:33:17;3.92;;;1.30;;
43580;SDS011;29175;51.030;4.606;2022-07-05T14:35:46;5.78;;;1.48;;
43580;SDS011;29175;51.030;4.606;2022-07-05T14:38:13;7.73;;;1.70;;
43580;SDS011;29175;51.030;4.606;2022-07-05T14:40:42;4.95;;;1.58;;
43580;SDS011;29175;51.030;4.606;2022-07-05T14:45:39;2.95;;;1.55;;
43580;SDS011;29175;51.030;4.606;2022-07-05T14:48:06;5.57;;;1.60;;
43580;SDS011;29175;51.030;4.606;2022-07-05T14:50:35;5.38;;;1.35;;
43580;SDS011;29175;51.030;4.606;2022-07-05T14:53:02;7.53;;;1.85;;
43580;SDS011;29175;51.030;4.606;2022-07-05T14:58:02;8.25;;;1.33;;
43580;SDS011;29175;51.030;4.606;2022-07-05T15:00:28;2.88;;;1.42;;
43580;SDS011;29175;51.030;4.606;2022-07-05T15:02:54;3.60;;;1.50;;
43580;SDS011;29175;51.030;4.606;2022-07-05T15:05:20;4.20;;;1.20;;
43580;SDS011;29175;51.030;4.606;2022-07-05T15:07:48;3.70;;;1.20;;
43580;SDS011;29175;51.030;4.606;2022-07-05T15:10:16;6.05;;;1.80;;
43580;SDS011;29175;51.030;4.606;2022-07-05T15:12:42;7.00;;;1.52;;
43580;SDS011;29175;51.030;4.606;2022-07-05T15:15:08;7.68;;;1.70;;
43580;SDS011;29175;51.030;4.606;2022-07-05T15:20:03;6.50;;;1.95;;
43580;SDS011;29175;51.030;4.606;2022-07-05T15:25:00;5.50;;;1.20;;
43580;SDS011;29175;51.030;4.606;2022-07-05T15:27:26;5.75;;;1.20;;
43580;SDS011;29175;51.030;4.606;2022-07-05T15:29:54;4.00;;;1.35;;
43580;SDS011;29175;51.030;4.606;2022-07-05T15:37:25;4.45;;;1.25;;
43580;SDS011;29175;51.030;4.606;2022-07-05T15:39:51;8.32;;;1.15;;
43580;SDS011;29175;51.030;4.606;2022-07-05T15:42:18;4.55;;;1.30;;
43580;SDS011;29175;51.030;4.606;2022-07-05T15:44:46;2.08;;;0.80;;
43580;SDS011;29175;51.030;4.606;2022-07-05T15:47:13;2.92;;;1.00;;
43580;SDS011;29175;51.030;4.606;2022-07-05T15:49:42;3.05;;;1.63;;
43580;SDS011;29175;51.030;4.606;2022-07-05T15:52:11;5.30;;;1.40;;
43580;SDS011;29175;51.030;4.606;2022-07-05T15:54:38;2.33;;;1.10;;